Canterbury, New Hampshire
Current Conditions -  °F | °C
As of 4:51 AM on Friday 24 Oct 2014 (Local Time) from KCON Reporting Station
Light Rain Light Rain  
Wind Chill: 44°   Ceiling: 2200
Heat Index: 47°   Visibility: 10mi
Dew Point: 46°   Wind: 7mph
Humidity: 97%   Direction: 330°NNW
Pressure: 29.71"   Gusts: NA
Location:  43.34°N, 71.57°W
Report Text: KCON 240851Z AUTO 33006KT 10SM -RA BKN022 OVC027 08/08 A2971 RMK AO2 SLP061 P0007 60016 T00830078 51004
Loading
Personal Weather Stations






























Interactive Weather Map
Tropical Storm Tracking
New forecast layout! Learn more

10-Day Weather Forecast

Advertisements
Track Severe Weather on mobile